sensor_id;sensor_type;location;lat;lon;timestamp;P1;durP1;ratioP1;P2;durP2;ratioP2
77400;SDS011;74775;45.476;11.016;2024-02-26T00:02:17;2.20;;;1.30;;
77400;SDS011;74775;45.476;11.016;2024-02-26T00:04:44;2.40;;;1.40;;
77400;SDS011;74775;45.476;11.016;2024-02-26T00:07:11;2.90;;;1.40;;
77400;SDS011;74775;45.476;11.016;2024-02-26T00:09:39;4.80;;;1.40;;
77400;SDS011;74775;45.476;11.016;2024-02-26T00:12:06;4.80;;;1.50;;
77400;SDS011;74775;45.476;11.016;2024-02-26T00:14:33;4.20;;;1.50;;
77400;SDS011;74775;45.476;11.016;2024-02-26T00:17:00;2.30;;;1.30;;
77400;SDS011;74775;45.476;11.016;2024-02-26T00:19:27;2.80;;;1.50;;
77400;SDS011;74775;45.476;11.016;2024-02-26T00:21:54;3.60;;;1.70;;
77400;SDS011;74775;45.476;11.016;2024-02-26T00:24:22;2.60;;;1.40;;
77400;SDS011;74775;45.476;11.016;2024-02-26T00:26:49;3.50;;;1.60;;
77400;SDS011;74775;45.476;11.016;2024-02-26T00:29:20;1.70;;;1.20;;
77400;SDS011;74775;45.476;11.016;2024-02-26T00:31:49;2.00;;;1.20;;
77400;SDS011;74775;45.476;11.016;2024-02-26T00:34:15;1.40;;;1.20;;
77400;SDS011;74775;45.476;11.016;2024-02-26T00:36:43;1.50;;;1.00;;
77400;SDS011;74775;45.476;11.016;2024-02-26T00:39:11;2.10;;;1.30;;
77400;SDS011;74775;45.476;11.016;2024-02-26T00:41:39;3.60;;;1.30;;
77400;SDS011;74775;45.476;11.016;2024-02-26T00:44:07;2.00;;;1.00;;
77400;SDS011;74775;45.476;11.016;2024-02-26T00:46:34;1.20;;;0.80;;
77400;SDS011;74775;45.476;11.016;2024-02-26T00:49:01;2.60;;;1.30;;
77400;SDS011;74775;45.476;11.016;2024-02-26T00:51:28;2.70;;;1.10;;
77400;SDS011;74775;45.476;11.016;2024-02-26T00:53:55;2.10;;;1.30;;
77400;SDS011;74775;45.476;11.016;2024-02-26T00:56:22;3.50;;;1.50;;
77400;SDS011;74775;45.476;11.016;2024-02-26T00:58:49;1.60;;;1.00;;
77400;SDS011;74775;45.476;11.016;2024-02-26T01:01:16;2.30;;;1.40;;
77400;SDS011;74775;45.476;11.016;2024-02-26T01:03:43;2.10;;;1.20;;
77400;SDS011;74775;45.476;11.016;2024-02-26T01:06:10;1.40;;;1.10;;
77400;SDS011;74775;45.476;11.016;2024-02-26T01:08:37;2.20;;;1.50;;
77400;SDS011;74775;45.476;11.016;2024-02-26T01:11:04;2.60;;;1.40;;
77400;SDS011;74775;45.476;11.016;2024-02-26T01:13:31;2.20;;;1.30;;
77400;SDS011;74775;45.476;11.016;2024-02-26T01:15:58;2.70;;;1.50;;
77400;SDS011;74775;45.476;11.016;2024-02-26T01:18:25;2.30;;;1.60;;
77400;SDS011;74775;45.476;11.016;2024-02-26T01:20:52;3.80;;;1.10;;
77400;SDS011;74775;45.476;11.016;2024-02-26T01:23:21;2.10;;;0.90;;
77400;SDS011;74775;45.476;11.016;2024-02-26T01:25:48;2.20;;;1.20;;
77400;SDS011;74775;45.476;11.016;2024-02-26T01:28:16;1.90;;;1.00;;
77400;SDS011;74775;45.476;11.016;2024-02-26T01:30:43;2.10;;;1.30;;
77400;SDS011;74775;45.476;11.016;2024-02-26T01:33:09;3.00;;;1.50;;
77400;SDS011;74775;45.476;11.016;2024-02-26T01:35:37;1.60;;;1.20;;
77400;SDS011;74775;45.476;11.016;2024-02-26T01:38:03;1.80;;;1.30;;
77400;SDS011;74775;45.476;11.016;2024-02-26T01:40:30;3.30;;;1.40;;
77400;SDS011;74775;45.476;11.016;2024-02-26T01:42:57;1.60;;;1.10;;
77400;SDS011;74775;45.476;11.016;2024-02-26T01:45:25;3.50;;;1.60;;
77400;SDS011;74775;45.476;11.016;2024-02-26T01:47:53;3.00;;;1.30;;
77400;SDS011;74775;45.476;11.016;2024-02-26T01:50:21;2.70;;;1.30;;
77400;SDS011;74775;45.476;11.016;2024-02-26T01:52:51;2.20;;;1.20;;
77400;SDS011;74775;45.476;11.016;2024-02-26T01:55:19;2.60;;;1.50;;
77400;SDS011;74775;45.476;11.016;2024-02-26T01:57:47;2.80;;;1.60;;
77400;SDS011;74775;45.476;11.016;2024-02-26T02:00:15;2.50;;;1.60;;
77400;SDS011;74775;45.476;11.016;2024-02-26T02:02:43;2.80;;;1.40;;
77400;SDS011;74775;45.476;11.016;2024-02-26T02:05:16;2.10;;;1.30;;
77400;SDS011;74775;45.476;11.016;2024-02-26T02:07:44;1.50;;;1.20;;
77400;SDS011;74775;45.476;11.016;2024-02-26T02:10:12;2.00;;;1.60;;
77400;SDS011;74775;45.476;11.016;2024-02-26T02:12:39;2.50;;;1.40;;
77400;SDS011;74775;45.476;11.016;2024-02-26T02:15:07;3.20;;;1.80;;
77400;SDS011;74775;45.476;11.016;2024-02-26T02:17:34;2.50;;;1.70;;
77400;SDS011;74775;45.476;11.016;2024-02-26T02:20:02;6.30;;;1.90;;
77400;SDS011;74775;45.476;11.016;2024-02-26T02:22:30;2.80;;;1.70;;
77400;SDS011;74775;45.476;11.016;2024-02-26T02:24:59;2.10;;;1.40;;
77400;SDS011;74775;45.476;11.016;2024-02-26T02:27:27;4.10;;;1.90;;
77400;SDS011;74775;45.476;11.016;2024-02-26T02:29:55;3.30;;;1.90;;
77400;SDS011;74775;45.476;11.016;2024-02-26T02:32:22;4.20;;;1.90;;
77400;SDS011;74775;45.476;11.016;2024-02-26T02:34:50;3.80;;;1.70;;
77400;SDS011;74775;45.476;11.016;2024-02-26T02:37:17;2.30;;;1.70;;
77400;SDS011;74775;45.476;11.016;2024-02-26T02:39:44;2.90;;;2.00;;
77400;SDS011;74775;45.476;11.016;2024-02-26T02:42:11;3.90;;;1.90;;
77400;SDS011;74775;45.476;11.016;2024-02-26T02:44:41;2.70;;;1.80;;
77400;SDS011;74775;45.476;11.016;2024-02-26T02:47:08;3.30;;;1.90;;
77400;SDS011;74775;45.476;11.016;2024-02-26T02:49:34;2.60;;;1.60;;
77400;SDS011;74775;45.476;11.016;2024-02-26T02:52:01;2.90;;;2.00;;
77400;SDS011;74775;45.476;11.016;2024-02-26T02:54:28;4.00;;;2.00;;
77400;SDS011;74775;45.476;11.016;2024-02-26T02:56:55;4.10;;;2.20;;
77400;SDS011;74775;45.476;11.016;2024-02-26T02:59:22;4.50;;;2.60;;
77400;SDS011;74775;45.476;11.016;2024-02-26T03:01:49;4.30;;;2.30;;
77400;SDS011;74775;45.476;11.016;2024-02-26T03:04:16;5.10;;;2.20;;
77400;SDS011;74775;45.476;11.016;2024-02-26T03:06:43;3.70;;;2.00;;
77400;SDS011;74775;45.476;11.016;2024-02-26T03:09:10;2.70;;;1.80;;
77400;SDS011;74775;45.476;11.016;2024-02-26T03:11:37;6.00;;;2.20;;
77400;SDS011;74775;45.476;11.016;2024-02-26T03:14:05;3.20;;;2.10;;
77400;SDS011;74775;45.476;11.016;2024-02-26T03:16:33;2.90;;;1.90;;
77400;SDS011;74775;45.476;11.016;2024-02-26T03:19:00;4.40;;;2.10;;
77400;SDS011;74775;45.476;11.016;2024-02-26T03:21:27;3.50;;;2.10;;
77400;SDS011;74775;45.476;11.016;2024-02-26T03:23:54;2.70;;;2.00;;
77400;SDS011;74775;45.476;11.016;2024-02-26T03:26:21;3.40;;;2.00;;
77400;SDS011;74775;45.476;11.016;2024-02-26T03:28:48;4.50;;;2.50;;
77400;SDS011;74775;45.476;11.016;2024-02-26T03:31:18;3.90;;;2.20;;
77400;SDS011;74775;45.476;11.016;2024-02-26T03:33:46;3.90;;;2.20;;
77400;SDS011;74775;45.476;11.016;2024-02-26T03:36:13;3.60;;;2.50;;
77400;SDS011;74775;45.476;11.016;2024-02-26T03:38:40;3.20;;;2.30;;
77400;SDS011;74775;45.476;11.016;2024-02-26T03:41:07;4.20;;;2.40;;
77400;SDS011;74775;45.476;11.016;2024-02-26T03:43:35;5.10;;;2.60;;
77400;SDS011;74775;45.476;11.016;2024-02-26T03:46:02;3.90;;;2.30;;
77400;SDS011;74775;45.476;11.016;2024-02-26T03:48:29;2.70;;;2.10;;
77400;SDS011;74775;45.476;11.016;2024-02-26T03:50:56;3.90;;;2.30;;
77400;SDS011;74775;45.476;11.016;2024-02-26T03:53:22;3.60;;;2.10;;
77400;SDS011;74775;45.476;11.016;2024-02-26T03:55:49;3.10;;;2.50;;
77400;SDS011;74775;45.476;11.016;2024-02-26T03:58:18;2.80;;;2.30;;
77400;SDS011;74775;45.476;11.016;2024-02-26T04:00:45;3.30;;;2.40;;
77400;SDS011;74775;45.476;11.016;2024-02-26T04:03:14;4.40;;;2.30;;
77400;SDS011;74775;45.476;11.016;2024-02-26T04:05:41;3.20;;;2.60;;
77400;SDS011;74775;45.476;11.016;2024-02-26T04:08:08;4.20;;;2.10;;
77400;SDS011;74775;45.476;11.016;2024-02-26T04:10:37;3.80;;;2.50;;
77400;SDS011;74775;45.476;11.016;2024-02-26T04:13:07;3.90;;;2.30;;
77400;SDS011;74775;45.476;11.016;2024-02-26T04:15:34;3.90;;;2.50;;
77400;SDS011;74775;45.476;11.016;2024-02-26T04:18:01;3.30;;;2.10;;
77400;SDS011;74775;45.476;11.016;2024-02-26T04:20:29;2.80;;;2.20;;
77400;SDS011;74775;45.476;11.016;2024-02-26T04:22:56;4.30;;;2.30;;
77400;SDS011;74775;45.476;11.016;2024-02-26T04:25:23;3.90;;;2.40;;
77400;SDS011;74775;45.476;11.016;2024-02-26T04:27:50;4.20;;;2.50;;
77400;SDS011;74775;45.476;11.016;2024-02-26T04:30:17;3.50;;;2.20;;
77400;SDS011;74775;45.476;11.016;2024-02-26T04:32:44;3.10;;;2.10;;
77400;SDS011;74775;45.476;11.016;2024-02-26T04:35:11;4.90;;;2.90;;
77400;SDS011;74775;45.476;11.016;2024-02-26T04:37:38;6.50;;;2.60;;
77400;SDS011;74775;45.476;11.016;2024-02-26T04:40:05;2.50;;;2.00;;
77400;SDS011;74775;45.476;11.016;2024-02-26T04:42:35;4.40;;;2.10;;
77400;SDS011;74775;45.476;11.016;2024-02-26T04:45:02;3.60;;;2.10;;
77400;SDS011;74775;45.476;11.016;2024-02-26T04:47:29;3.80;;;2.30;;
77400;SDS011;74775;45.476;11.016;2024-02-26T04:49:56;4.80;;;2.30;;
77400;SDS011;74775;45.476;11.016;2024-02-26T04:52:24;4.30;;;2.30;;
77400;SDS011;74775;45.476;11.016;2024-02-26T04:54:51;4.50;;;2.30;;
77400;SDS011;74775;45.476;11.016;2024-02-26T04:57:17;3.40;;;2.00;;
77400;SDS011;74775;45.476;11.016;2024-02-26T04:59:45;3.50;;;2.00;;
77400;SDS011;74775;45.476;11.016;2024-02-26T05:02:13;4.40;;;2.40;;
77400;SDS011;74775;45.476;11.016;2024-02-26T05:04:40;5.70;;;2.50;;
77400;SDS011;74775;45.476;11.016;2024-02-26T05:07:07;3.60;;;2.40;;
77400;SDS011;74775;45.476;11.016;2024-02-26T05:09:34;4.00;;;2.30;;
77400;SDS011;74775;45.476;11.016;2024-02-26T05:12:01;3.00;;;1.90;;
77400;SDS011;74775;45.476;11.016;2024-02-26T05:14:28;4.00;;;2.30;;
77400;SDS011;74775;45.476;11.016;2024-02-26T05:16:55;3.80;;;2.40;;
77400;SDS011;74775;45.476;11.016;2024-02-26T05:19:22;4.90;;;2.20;;
77400;SDS011;74775;45.476;11.016;2024-02-26T05:21:50;3.60;;;2.10;;
77400;SDS011;74775;45.476;11.016;2024-02-26T05:24:17;2.40;;;2.00;;
77400;SDS011;74775;45.476;11.016;2024-02-26T05:26:45;5.00;;;2.10;;
77400;SDS011;74775;45.476;11.016;2024-02-26T05:29:12;4.50;;;2.30;;
77400;SDS011;74775;45.476;11.016;2024-02-26T05:31:39;6.30;;;2.20;;
77400;SDS011;74775;45.476;11.016;2024-02-26T05:34:06;4.80;;;2.60;;
77400;SDS011;74775;45.476;11.016;2024-02-26T05:36:33;2.80;;;2.10;;
77400;SDS011;74775;45.476;11.016;2024-02-26T05:39:00;2.70;;;2.10;;
77400;SDS011;74775;45.476;11.016;2024-02-26T05:41:27;3.80;;;2.30;;
77400;SDS011;74775;45.476;11.016;2024-02-26T05:43:54;3.40;;;2.10;;
77400;SDS011;74775;45.476;11.016;2024-02-26T05:46:22;4.20;;;2.30;;
77400;SDS011;74775;45.476;11.016;2024-02-26T05:48:50;3.70;;;2.30;;
77400;SDS011;74775;45.476;11.016;2024-02-26T05:53:45;3.20;;;1.90;;
77400;SDS011;74775;45.476;11.016;2024-02-26T05:56:13;1.90;;;1.60;;
77400;SDS011;74775;45.476;11.016;2024-02-26T05:58:40;2.50;;;1.90;;
77400;SDS011;74775;45.476;11.016;2024-02-26T06:01:07;2.10;;;1.60;;
77400;SDS011;74775;45.476;11.016;2024-02-26T06:03:34;3.10;;;1.90;;
77400;SDS011;74775;45.476;11.016;2024-02-26T06:06:01;2.20;;;1.60;;
77400;SDS011;74775;45.476;11.016;2024-02-26T06:08:28;3.20;;;2.40;;
77400;SDS011;74775;45.476;11.016;2024-02-26T06:10:55;2.90;;;2.00;;
77400;SDS011;74775;45.476;11.016;2024-02-26T06:13:22;4.60;;;2.30;;
77400;SDS011;74775;45.476;11.016;2024-02-26T06:15:49;4.90;;;2.00;;
77400;SDS011;74775;45.476;11.016;2024-02-26T06:18:16;3.30;;;2.00;;
77400;SDS011;74775;45.476;11.016;2024-02-26T06:20:43;2.70;;;2.00;;
77400;SDS011;74775;45.476;11.016;2024-02-26T06:23:11;3.00;;;1.80;;
77400;SDS011;74775;45.476;11.016;2024-02-26T06:25:38;3.20;;;2.00;;
77400;SDS011;74775;45.476;11.016;2024-02-26T06:28:05;2.90;;;1.90;;
77400;SDS011;74775;45.476;11.016;2024-02-26T06:30:32;3.80;;;2.10;;
77400;SDS011;74775;45.476;11.016;2024-02-26T06:33:00;3.90;;;2.20;;
77400;SDS011;74775;45.476;11.016;2024-02-26T06:35:27;5.30;;;2.30;;
77400;SDS011;74775;45.476;11.016;2024-02-26T06:37:54;4.00;;;2.30;;
77400;SDS011;74775;45.476;11.016;2024-02-26T06:40:21;3.90;;;2.50;;
77400;SDS011;74775;45.476;11.016;2024-02-26T06:42:48;4.10;;;2.40;;
77400;SDS011;74775;45.476;11.016;2024-02-26T06:45:17;5.10;;;3.00;;
77400;SDS011;74775;45.476;11.016;2024-02-26T06:47:46;7.00;;;3.80;;
77400;SDS011;74775;45.476;11.016;2024-02-26T06:50:13;3.90;;;2.70;;
77400;SDS011;74775;45.476;11.016;2024-02-26T06:52:40;4.10;;;3.10;;
77400;SDS011;74775;45.476;11.016;2024-02-26T06:55:07;3.60;;;2.70;;
77400;SDS011;74775;45.476;11.016;2024-02-26T06:57:35;4.00;;;2.80;;
77400;SDS011;74775;45.476;11.016;2024-02-26T07:00:02;6.30;;;3.10;;
77400;SDS011;74775;45.476;11.016;2024-02-26T07:02:31;5.70;;;3.70;;
77400;SDS011;74775;45.476;11.016;2024-02-26T07:04:58;4.80;;;3.00;;
77400;SDS011;74775;45.476;11.016;2024-02-26T07:07:25;9.00;;;3.90;;
77400;SDS011;74775;45.476;11.016;2024-02-26T07:09:52;8.00;;;4.50;;
77400;SDS011;74775;45.476;11.016;2024-02-26T07:12:19;5.60;;;3.80;;
77400;SDS011;74775;45.476;11.016;2024-02-26T07:14:48;4.90;;;3.40;;
77400;SDS011;74775;45.476;11.016;2024-02-26T07:17:16;16.90;;;5.30;;
77400;SDS011;74775;45.476;11.016;2024-02-26T07:19:43;11.80;;;5.50;;
77400;SDS011;74775;45.476;11.016;2024-02-26T07:22:10;8.10;;;3.80;;
77400;SDS011;74775;45.476;11.016;2024-02-26T07:24:37;5.70;;;3.40;;
77400;SDS011;74775;45.476;11.016;2024-02-26T07:27:04;5.70;;;3.70;;
77400;SDS011;74775;45.476;11.016;2024-02-26T07:29:31;4.70;;;3.70;;
77400;SDS011;74775;45.476;11.016;2024-02-26T07:31:58;5.30;;;3.30;;
77400;SDS011;74775;45.476;11.016;2024-02-26T07:34:26;10.90;;;4.30;;
77400;SDS011;74775;45.476;11.016;2024-02-26T07:36:56;6.10;;;3.60;;
77400;SDS011;74775;45.476;11.016;2024-02-26T07:39:23;6.10;;;2.90;;
77400;SDS011;74775;45.476;11.016;2024-02-26T07:41:50;7.30;;;4.30;;
77400;SDS011;74775;45.476;11.016;2024-02-26T07:44:20;5.90;;;4.30;;
77400;SDS011;74775;45.476;11.016;2024-02-26T07:46:47;7.40;;;4.10;;
77400;SDS011;74775;45.476;11.016;2024-02-26T07:49:14;6.50;;;4.10;;
77400;SDS011;74775;45.476;11.016;2024-02-26T07:51:41;8.00;;;3.70;;
77400;SDS011;74775;45.476;11.016;2024-02-26T07:54:08;6.80;;;4.00;;
77400;SDS011;74775;45.476;11.016;2024-02-26T07:56:35;7.90;;;4.20;;
77400;SDS011;74775;45.476;11.016;2024-02-26T07:59:02;8.90;;;4.60;;
77400;SDS011;74775;45.476;11.016;2024-02-26T08:01:29;9.20;;;4.30;;
77400;SDS011;74775;45.476;11.016;2024-02-26T08:03:56;7.00;;;4.40;;
77400;SDS011;74775;45.476;11.016;2024-02-26T08:06:23;6.60;;;4.10;;
77400;SDS011;74775;45.476;11.016;2024-02-26T08:08:51;9.70;;;4.80;;
77400;SDS011;74775;45.476;11.016;2024-02-26T08:11:19;7.30;;;4.00;;
77400;SDS011;74775;45.476;11.016;2024-02-26T08:13:45;10.80;;;4.40;;
77400;SDS011;74775;45.476;11.016;2024-02-26T08:16:12;11.80;;;4.70;;
77400;SDS011;74775;45.476;11.016;2024-02-26T08:18:39;8.10;;;4.70;;
77400;SDS011;74775;45.476;11.016;2024-02-26T08:21:07;11.40;;;5.40;;
77400;SDS011;74775;45.476;11.016;2024-02-26T08:23:35;12.90;;;4.70;;
77400;SDS011;74775;45.476;11.016;2024-02-26T08:26:02;12.30;;;4.90;;
77400;SDS011;74775;45.476;11.016;2024-02-26T08:28:30;17.40;;;4.90;;
77400;SDS011;74775;45.476;11.016;2024-02-26T08:30:57;8.10;;;4.30;;
77400;SDS011;74775;45.476;11.016;2024-02-26T08:33:25;8.40;;;4.60;;
77400;SDS011;74775;45.476;11.016;2024-02-26T08:35:52;8.20;;;5.00;;
77400;SDS011;74775;45.476;11.016;2024-02-26T08:38:19;7.40;;;5.10;;
77400;SDS011;74775;45.476;11.016;2024-02-26T08:40:46;9.40;;;5.10;;
77400;SDS011;74775;45.476;11.016;2024-02-26T08:43:13;8.60;;;5.40;;
77400;SDS011;74775;45.476;11.016;2024-02-26T08:45:39;11.10;;;6.50;;
77400;SDS011;74775;45.476;11.016;2024-02-26T08:48:07;10.30;;;6.40;;
77400;SDS011;74775;45.476;11.016;2024-02-26T08:50:34;8.30;;;6.30;;
77400;SDS011;74775;45.476;11.016;2024-02-26T08:53:01;9.60;;;6.50;;
77400;SDS011;74775;45.476;11.016;2024-02-26T08:55:33;14.10;;;6.00;;
77400;SDS011;74775;45.476;11.016;2024-02-26T08:58:00;8.60;;;5.40;;
77400;SDS011;74775;45.476;11.016;2024-02-26T09:00:27;7.50;;;5.40;;
77400;SDS011;74775;45.476;11.016;2024-02-26T09:02:56;8.50;;;5.70;;
77400;SDS011;74775;45.476;11.016;2024-02-26T09:05:25;9.50;;;5.40;;
77400;SDS011;74775;45.476;11.016;2024-02-26T09:07:52;10.00;;;6.00;;
77400;SDS011;74775;45.476;11.016;2024-02-26T09:10:19;10.40;;;5.60;;
77400;SDS011;74775;45.476;11.016;2024-02-26T09:12:49;8.80;;;6.00;;
77400;SDS011;74775;45.476;11.016;2024-02-26T09:15:19;9.80;;;5.70;;
77400;SDS011;74775;45.476;11.016;2024-02-26T09:17:46;8.90;;;5.90;;
77400;SDS011;74775;45.476;11.016;2024-02-26T09:20:19;10.20;;;5.50;;
77400;SDS011;74775;45.476;11.016;2024-02-26T09:22:47;9.00;;;5.70;;
77400;SDS011;74775;45.476;11.016;2024-02-26T09:25:14;10.10;;;6.00;;
77400;SDS011;74775;45.476;11.016;2024-02-26T09:27:47;11.00;;;5.80;;
77400;SDS011;74775;45.476;11.016;2024-02-26T09:30:15;11.30;;;6.10;;
77400;SDS011;74775;45.476;11.016;2024-02-26T09:32:45;9.70;;;5.60;;
77400;SDS011;74775;45.476;11.016;2024-02-26T09:35:14;8.30;;;5.40;;
77400;SDS011;74775;45.476;11.016;2024-02-26T09:37:42;10.00;;;5.50;;
77400;SDS011;74775;45.476;11.016;2024-02-26T09:40:10;8.80;;;5.20;;
77400;SDS011;74775;45.476;11.016;2024-02-26T09:42:41;6.60;;;5.00;;
77400;SDS011;74775;45.476;11.016;2024-02-26T09:45:19;7.70;;;4.90;;
77400;SDS011;74775;45.476;11.016;2024-02-26T09:47:49;5.80;;;3.80;;
77400;SDS011;74775;45.476;11.016;2024-02-26T09:50:17;5.90;;;3.90;;
77400;SDS011;74775;45.476;11.016;2024-02-26T09:52:52;5.80;;;3.30;;
77400;SDS011;74775;45.476;11.016;2024-02-26T09:55:23;4.90;;;3.80;;
77400;SDS011;74775;45.476;11.016;2024-02-26T09:57:51;5.00;;;3.30;;
77400;SDS011;74775;45.476;11.016;2024-02-26T10:00:20;4.40;;;3.20;;
77400;SDS011;74775;45.476;11.016;2024-02-26T10:02:49;5.10;;;3.60;;
77400;SDS011;74775;45.476;11.016;2024-02-26T10:05:17;6.30;;;4.00;;
77400;SDS011;74775;45.476;11.016;2024-02-26T10:07:47;5.90;;;3.70;;
77400;SDS011;74775;45.476;11.016;2024-02-26T10:10:14;4.80;;;3.40;;
77400;SDS011;74775;45.476;11.016;2024-02-26T10:12:42;6.60;;;3.80;;
77400;SDS011;74775;45.476;11.016;2024-02-26T10:15:09;7.60;;;4.10;;
77400;SDS011;74775;45.476;11.016;2024-02-26T10:17:36;4.80;;;3.30;;
77400;SDS011;74775;45.476;11.016;2024-02-26T10:20:14;5.40;;;3.20;;
77400;SDS011;74775;45.476;11.016;2024-02-26T10:22:46;5.70;;;3.20;;
77400;SDS011;74775;45.476;11.016;2024-02-26T10:25:13;6.30;;;3.40;;
77400;SDS011;74775;45.476;11.016;2024-02-26T10:27:41;4.20;;;3.30;;
77400;SDS011;74775;45.476;11.016;2024-02-26T10:32:49;4.40;;;3.10;;
77400;SDS011;74775;45.476;11.016;2024-02-26T10:35:20;5.60;;;3.00;;
77400;SDS011;74775;45.476;11.016;2024-02-26T10:37:49;5.60;;;3.00;;
77400;SDS011;74775;45.476;11.016;2024-02-26T10:40:16;3.70;;;3.20;;
77400;SDS011;74775;45.476;11.016;2024-02-26T10:42:43;10.60;;;6.00;;
77400;SDS011;74775;45.476;11.016;2024-02-26T10:45:12;9.30;;;5.90;;
77400;SDS011;74775;45.476;11.016;2024-02-26T10:47:40;6.70;;;4.70;;
77400;SDS011;74775;45.476;11.016;2024-02-26T10:52:36;10.50;;;6.60;;
77400;SDS011;74775;45.476;11.016;2024-02-26T10:55:04;6.90;;;5.10;;
77400;SDS011;74775;45.476;11.016;2024-02-26T10:57:37;5.90;;;4.00;;
77400;SDS011;74775;45.476;11.016;2024-02-26T11:00:07;5.60;;;3.70;;
77400;SDS011;74775;45.476;11.016;2024-02-26T11:02:37;5.90;;;3.60;;
77400;SDS011;74775;45.476;11.016;2024-02-26T11:05:05;4.80;;;3.30;;
77400;SDS011;74775;45.476;11.016;2024-02-26T11:07:34;5.20;;;3.20;;
77400;SDS011;74775;45.476;11.016;2024-02-26T11:10:03;5.40;;;4.20;;
77400;SDS011;74775;45.476;11.016;2024-02-26T11:12:31;4.00;;;2.60;;
77400;SDS011;74775;45.476;11.016;2024-02-26T11:14:59;4.70;;;3.00;;
77400;SDS011;74775;45.476;11.016;2024-02-26T11:17:28;5.20;;;2.80;;
77400;SDS011;74775;45.476;11.016;2024-02-26T11:20:00;5.40;;;2.60;;
77400;SDS011;74775;45.476;11.016;2024-02-26T11:22:29;3.90;;;2.40;;
77400;SDS011;74775;45.476;11.016;2024-02-26T11:24:56;3.10;;;2.70;;
77400;SDS011;74775;45.476;11.016;2024-02-26T11:27:26;4.80;;;2.90;;
77400;SDS011;74775;45.476;11.016;2024-02-26T11:29:57;5.30;;;2.70;;
77400;SDS011;74775;45.476;11.016;2024-02-26T11:32:27;3.70;;;3.30;;
77400;SDS011;74775;45.476;11.016;2024-02-26T11:35:00;3.10;;;2.50;;
77400;SDS011;74775;45.476;11.016;2024-02-26T11:37:27;5.40;;;3.60;;
77400;SDS011;74775;45.476;11.016;2024-02-26T11:39:54;7.30;;;4.70;;
77400;SDS011;74775;45.476;11.016;2024-02-26T11:42:24;8.10;;;3.80;;
77400;SDS011;74775;45.476;11.016;2024-02-26T11:44:56;6.70;;;4.50;;
77400;SDS011;74775;45.476;11.016;2024-02-26T11:47:28;8.00;;;5.30;;
77400;SDS011;74775;45.476;11.016;2024-02-26T11:49:55;6.20;;;3.90;;
77400;SDS011;74775;45.476;11.016;2024-02-26T11:52:22;4.60;;;2.70;;
77400;SDS011;74775;45.476;11.016;2024-02-26T11:54:50;3.30;;;2.10;;
77400;SDS011;74775;45.476;11.016;2024-02-26T11:57:24;5.40;;;2.00;;
77400;SDS011;74775;45.476;11.016;2024-02-26T12:05:08;4.50;;;2.20;;
77400;SDS011;74775;45.476;11.016;2024-02-26T12:07:36;4.30;;;3.00;;
77400;SDS011;74775;45.476;11.016;2024-02-26T12:12:44;5.40;;;2.80;;
77400;SDS011;74775;45.476;11.016;2024-02-26T12:15:11;5.60;;;2.80;;
77400;SDS011;74775;45.476;11.016;2024-02-26T12:17:41;13.40;;;9.10;;
77400;SDS011;74775;45.476;11.016;2024-02-26T12:20:12;7.50;;;4.80;;
77400;SDS011;74775;45.476;11.016;2024-02-26T12:22:39;7.00;;;4.50;;
77400;SDS011;74775;45.476;11.016;2024-02-26T12:25:10;5.60;;;3.20;;
77400;SDS011;74775;45.476;11.016;2024-02-26T12:27:37;10.60;;;6.10;;
77400;SDS011;74775;45.476;11.016;2024-02-26T12:30:04;9.10;;;6.10;;
77400;SDS011;74775;45.476;11.016;2024-02-26T12:32:33;4.50;;;3.20;;
77400;SDS011;74775;45.476;11.016;2024-02-26T12:35:00;3.50;;;2.20;;
77400;SDS011;74775;45.476;11.016;2024-02-26T12:37:28;3.20;;;1.70;;
77400;SDS011;74775;45.476;11.016;2024-02-26T12:39:55;3.60;;;1.80;;
77400;SDS011;74775;45.476;11.016;2024-02-26T12:42:22;2.80;;;2.10;;
77400;SDS011;74775;45.476;11.016;2024-02-26T12:44:49;4.40;;;2.40;;
77400;SDS011;74775;45.476;11.016;2024-02-26T12:47:16;3.80;;;1.80;;
77400;SDS011;74775;45.476;11.016;2024-02-26T12:49:48;2.20;;;1.40;;
77400;SDS011;74775;45.476;11.016;2024-02-26T12:52:16;4.60;;;1.80;;
77400;SDS011;74775;45.476;11.016;2024-02-26T12:54:44;5.60;;;2.40;;
77400;SDS011;74775;45.476;11.016;2024-02-26T12:57:11;2.20;;;1.30;;
77400;SDS011;74775;45.476;11.016;2024-02-26T12:59:38;3.50;;;1.40;;
77400;SDS011;74775;45.476;11.016;2024-02-26T13:02:06;1.70;;;1.00;;
77400;SDS011;74775;45.476;11.016;2024-02-26T13:04:34;1.70;;;1.00;;
77400;SDS011;74775;45.476;11.016;2024-02-26T13:07:03;2.90;;;1.40;;
77400;SDS011;74775;45.476;11.016;2024-02-26T13:09:32;1.30;;;0.70;;
77400;SDS011;74775;45.476;11.016;2024-02-26T13:12:03;2.40;;;0.70;;
77400;SDS011;74775;45.476;11.016;2024-02-26T13:14:34;2.80;;;0.70;;
77400;SDS011;74775;45.476;11.016;2024-02-26T13:17:02;1.10;;;0.60;;
77400;SDS011;74775;45.476;11.016;2024-02-26T13:19:29;1.60;;;1.00;;
77400;SDS011;74775;45.476;11.016;2024-02-26T13:22:05;1.50;;;1.00;;
77400;SDS011;74775;45.476;11.016;2024-02-26T13:27:00;4.20;;;1.20;;
77400;SDS011;74775;45.476;11.016;2024-02-26T13:29:30;2.30;;;1.40;;
77400;SDS011;74775;45.476;11.016;2024-02-26T13:31:57;3.10;;;0.80;;
77400;SDS011;74775;45.476;11.016;2024-02-26T13:34:25;1.10;;;0.70;;
77400;SDS011;74775;45.476;11.016;2024-02-26T13:36:54;2.40;;;0.90;;
77400;SDS011;74775;45.476;11.016;2024-02-26T13:39:24;1.80;;;1.30;;
77400;SDS011;74775;45.476;11.016;2024-02-26T13:41:53;5.10;;;2.60;;
77400;SDS011;74775;45.476;11.016;2024-02-26T13:44:21;2.40;;;1.30;;
77400;SDS011;74775;45.476;11.016;2024-02-26T13:46:51;2.00;;;1.00;;
77400;SDS011;74775;45.476;11.016;2024-02-26T13:49:18;2.30;;;0.70;;
77400;SDS011;74775;45.476;11.016;2024-02-26T13:51:46;2.50;;;1.30;;
77400;SDS011;74775;45.476;11.016;2024-02-26T13:54:12;1.90;;;1.00;;
77400;SDS011;74775;45.476;11.016;2024-02-26T13:56:41;1.40;;;0.70;;
77400;SDS011;74775;45.476;11.016;2024-02-26T13:59:12;2.20;;;0.90;;
77400;SDS011;74775;45.476;11.016;2024-02-26T14:01:39;2.80;;;1.50;;
77400;SDS011;74775;45.476;11.016;2024-02-26T14:04:06;2.60;;;1.00;;
77400;SDS011;74775;45.476;11.016;2024-02-26T14:06:35;1.50;;;1.40;;
77400;SDS011;74775;45.476;11.016;2024-02-26T14:09:03;2.00;;;1.70;;
77400;SDS011;74775;45.476;11.016;2024-02-26T14:11:30;2.10;;;1.30;;
77400;SDS011;74775;45.476;11.016;2024-02-26T14:13:57;1.50;;;1.40;;
77400;SDS011;74775;45.476;11.016;2024-02-26T14:16:24;1.10;;;0.80;;
77400;SDS011;74775;45.476;11.016;2024-02-26T14:18:56;2.20;;;1.20;;
77400;SDS011;74775;45.476;11.016;2024-02-26T14:21:23;2.50;;;1.30;;
77400;SDS011;74775;45.476;11.016;2024-02-26T14:23:50;2.80;;;1.70;;
77400;SDS011;74775;45.476;11.016;2024-02-26T14:26:17;2.20;;;1.40;;
77400;SDS011;74775;45.476;11.016;2024-02-26T14:28:44;5.00;;;1.50;;
77400;SDS011;74775;45.476;11.016;2024-02-26T14:31:11;1.90;;;1.40;;
77400;SDS011;74775;45.476;11.016;2024-02-26T14:33:38;1.80;;;1.30;;
77400;SDS011;74775;45.476;11.016;2024-02-26T14:36:08;3.40;;;1.80;;
77400;SDS011;74775;45.476;11.016;2024-02-26T14:38:35;3.00;;;1.90;;
77400;SDS011;74775;45.476;11.016;2024-02-26T14:41:02;1.20;;;0.70;;
77400;SDS011;74775;45.476;11.016;2024-02-26T14:43:30;3.10;;;1.80;;
77400;SDS011;74775;45.476;11.016;2024-02-26T14:45:58;2.30;;;1.30;;
77400;SDS011;74775;45.476;11.016;2024-02-26T14:48:26;1.10;;;0.90;;
77400;SDS011;74775;45.476;11.016;2024-02-26T14:50:53;2.20;;;1.30;;
77400;SDS011;74775;45.476;11.016;2024-02-26T14:53:20;2.10;;;0.90;;
77400;SDS011;74775;45.476;11.016;2024-02-26T14:55:47;2.70;;;1.70;;